Indian Wells, California
Current Conditions -  °F | °C
As of 11:52 AM on Monday 24 Nov 2014 (Local Time) from KTRM Reporting Station
Clear Clear  
Wind Chill: 76°   Ceiling: Unl
Heat Index: 76°   Visibility: 10mi
Dew Point: 20°   Wind: 8mph
Humidity: 12%   Direction: 300°WNW
Pressure: 30.23"   Gusts: NA
Location:  33.72°N, 116.31°W
Report Text: KTRM 241952Z AUTO 30007KT 270V340 10SM CLR 24/M07 A3023 RMK AO2 SLP238 T02441067 TSNO
Loading
Personal Weather Stations






























Interactive Weather Map New forecast layout! Learn more

10-Day Weather Forecast

Advertisements
Track Severe Weather on mobile